sensor_id;sensor_type;location;lat;lon;timestamp;temperature;humidity
68109;SHT30;54893;49.864;19.084;2024-02-23T00:00:50;9.70;80.31
68109;SHT30;54893;49.864;19.084;2024-02-23T00:05:51;9.73;80.28
68109;SHT30;54893;49.864;19.084;2024-02-23T00:10:51;9.60;80.66
68109;SHT30;54893;49.864;19.084;2024-02-23T00:15:52;9.51;80.91
68109;SHT30;54893;49.864;19.084;2024-02-23T00:20:52;9.51;80.96
68109;SHT30;54893;49.864;19.084;2024-02-23T00:25:52;9.43;81.28
68109;SHT30;54893;49.864;19.084;2024-02-23T00:30:53;9.38;81.37
68109;SHT30;54893;49.864;19.084;2024-02-23T00:35:53;9.41;81.16
68109;SHT30;54893;49.864;19.084;2024-02-23T00:40:53;9.41;81.21
68109;SHT30;54893;49.864;19.084;2024-02-23T00:45:54;9.43;81.06
68109;SHT30;54893;49.864;19.084;2024-02-23T00:50:54;9.52;80.77
68109;SHT30;54893;49.864;19.084;2024-02-23T00:55:55;9.61;80.56
68109;SHT30;54893;49.864;19.084;2024-02-23T01:00:55;9.58;80.47
68109;SHT30;54893;49.864;19.084;2024-02-23T01:05:55;9.61;80.37
68109;SHT30;54893;49.864;19.084;2024-02-23T01:10:56;9.62;80.21
68109;SHT30;54893;49.864;19.084;2024-02-23T01:15:56;9.64;79.94
68109;SHT30;54893;49.864;19.084;2024-02-23T01:20:56;9.55;80.07
68109;SHT30;54893;49.864;19.084;2024-02-23T01:25:57;9.52;80.00
68109;SHT30;54893;49.864;19.084;2024-02-23T01:30:59;9.47;80.26
68109;SHT30;54893;49.864;19.084;2024-02-23T01:35:59;9.34;80.60
68109;SHT30;54893;49.864;19.084;2024-02-23T01:41:00;9.44;80.36
68109;SHT30;54893;49.864;19.084;2024-02-23T01:46:00;9.40;80.16
68109;SHT30;54893;49.864;19.084;2024-02-23T01:51:01;9.54;79.95
68109;SHT30;54893;49.864;19.084;2024-02-23T01:56:02;9.46;80.13
68109;SHT30;54893;49.864;19.084;2024-02-23T02:01:03;9.51;79.93
68109;SHT30;54893;49.864;19.084;2024-02-23T02:06:05;9.47;79.88
68109;SHT30;54893;49.864;19.084;2024-02-23T02:11:06;9.50;79.57
68109;SHT30;54893;49.864;19.084;2024-02-23T02:16:06;9.58;79.37
68109;SHT30;54893;49.864;19.084;2024-02-23T02:21:07;9.41;79.76
68109;SHT30;54893;49.864;19.084;2024-02-23T02:26:07;9.48;79.68
68109;SHT30;54893;49.864;19.084;2024-02-23T02:31:07;9.48;79.57
68109;SHT30;54893;49.864;19.084;2024-02-23T02:36:08;9.51;79.68
68109;SHT30;54893;49.864;19.084;2024-02-23T02:41:08;9.44;79.89
68109;SHT30;54893;49.864;19.084;2024-02-23T02:46:09;9.51;79.71
68109;SHT30;54893;49.864;19.084;2024-02-23T02:51:10;9.47;79.77
68109;SHT30;54893;49.864;19.084;2024-02-23T02:56:10;9.47;79.83
68109;SHT30;54893;49.864;19.084;2024-02-23T03:01:11;9.55;79.68
68109;SHT30;54893;49.864;19.084;2024-02-23T03:06:12;9.50;79.76
68109;SHT30;54893;49.864;19.084;2024-02-23T03:11:12;9.54;79.91
68109;SHT30;54893;49.864;19.084;2024-02-23T03:16:20;9.70;79.37
68109;SHT30;54893;49.864;19.084;2024-02-23T03:21:21;9.54;80.32
68109;SHT30;54893;49.864;19.084;2024-02-23T03:26:21;9.40;81.41
68109;SHT30;54893;49.864;19.084;2024-02-23T03:31:21;9.50;82.22
68109;SHT30;54893;49.864;19.084;2024-02-23T03:36:22;9.17;84.74
68109;SHT30;54893;49.864;19.084;2024-02-23T03:41:22;8.94;87.28
68109;SHT30;54893;49.864;19.084;2024-02-23T03:46:22;8.68;89.78
68109;SHT30;54893;49.864;19.084;2024-02-23T03:51:23;8.53;86.00
68109;SHT30;54893;49.864;19.084;2024-02-23T03:56:24;8.52;87.68
68109;SHT30;54893;49.864;19.084;2024-02-23T04:01:24;8.58;87.40
68109;SHT30;54893;49.864;19.084;2024-02-23T04:06:24;8.58;86.71
68109;SHT30;54893;49.864;19.084;2024-02-23T04:11:25;8.38;88.84
68109;SHT30;54893;49.864;19.084;2024-02-23T04:16:26;8.39;88.61
68109;SHT30;54893;49.864;19.084;2024-02-23T04:21:26;8.52;85.90
68109;SHT30;54893;49.864;19.084;2024-02-23T04:26:27;8.76;85.03
68109;SHT30;54893;49.864;19.084;2024-02-23T04:31:27;8.55;85.66
68109;SHT30;54893;49.864;19.084;2024-02-23T04:36:27;8.62;85.95
68109;SHT30;54893;49.864;19.084;2024-02-23T04:41:28;8.48;87.01
68109;SHT30;54893;49.864;19.084;2024-02-23T04:46:28;8.38;87.62
68109;SHT30;54893;49.864;19.084;2024-02-23T04:51:29;8.12;91.38
68109;SHT30;54893;49.864;19.084;2024-02-23T04:56:30;8.38;88.21
68109;SHT30;54893;49.864;19.084;2024-02-23T05:01:35;8.35;87.81
68109;SHT30;54893;49.864;19.084;2024-02-23T05:06:36;8.28;88.62
68109;SHT30;54893;49.864;19.084;2024-02-23T05:11:36;8.46;87.06
68109;SHT30;54893;49.864;19.084;2024-02-23T05:16:36;8.79;86.87
68109;SHT30;54893;49.864;19.084;2024-02-23T05:21:37;8.90;86.16
68109;SHT30;54893;49.864;19.084;2024-02-23T05:26:37;9.03;85.45
68109;SHT30;54893;49.864;19.084;2024-02-23T05:31:54;9.06;85.47
68109;SHT30;54893;49.864;19.084;2024-02-23T05:36:54;8.86;86.33
68109;SHT30;54893;49.864;19.084;2024-02-23T05:41:56;8.70;87.68
68109;SHT30;54893;49.864;19.084;2024-02-23T05:46:57;8.73;87.20
68109;SHT30;54893;49.864;19.084;2024-02-23T05:51:57;8.82;86.64
68109;SHT30;54893;49.864;19.084;2024-02-23T05:56:58;8.79;86.96
68109;SHT30;54893;49.864;19.084;2024-02-23T06:01:58;8.75;87.00
68109;SHT30;54893;49.864;19.084;2024-02-23T06:06:59;8.70;87.12
68109;SHT30;54893;49.864;19.084;2024-02-23T06:12:00;8.73;87.27
68109;SHT30;54893;49.864;19.084;2024-02-23T06:17:02;8.69;87.48
68109;SHT30;54893;49.864;19.084;2024-02-23T06:22:02;8.69;87.75
68109;SHT30;54893;49.864;19.084;2024-02-23T06:27:03;8.53;89.41
68109;SHT30;54893;49.864;19.084;2024-02-23T06:32:04;8.62;88.87
68109;SHT30;54893;49.864;19.084;2024-02-23T06:37:04;8.68;88.99
68109;SHT30;54893;49.864;19.084;2024-02-23T06:42:05;8.68;88.83
68109;SHT30;54893;49.864;19.084;2024-02-23T06:47:06;8.63;88.71
68109;SHT30;54893;49.864;19.084;2024-02-23T06:52:07;8.65;89.20
68109;SHT30;54893;49.864;19.084;2024-02-23T06:57:07;8.72;88.63
68109;SHT30;54893;49.864;19.084;2024-02-23T07:02:07;8.55;89.22
68109;SHT30;54893;49.864;19.084;2024-02-23T07:07:08;8.52;89.34
68109;SHT30;54893;49.864;19.084;2024-02-23T07:12:08;8.29;91.11
68109;SHT30;54893;49.864;19.084;2024-02-23T07:17:11;8.27;91.11
68109;SHT30;54893;49.864;19.084;2024-02-23T07:22:12;8.20;92.09
68109;SHT30;54893;49.864;19.084;2024-02-23T07:27:12;8.11;91.56
68109;SHT30;54893;49.864;19.084;2024-02-23T07:32:13;8.09;91.65
68109;SHT30;54893;49.864;19.084;2024-02-23T07:37:13;8.08;91.15
68109;SHT30;54893;49.864;19.084;2024-02-23T07:42:14;8.12;91.26
68109;SHT30;54893;49.864;19.084;2024-02-23T07:47:18;8.14;91.57
68109;SHT30;54893;49.864;19.084;2024-02-23T07:52:18;8.06;91.70
68109;SHT30;54893;49.864;19.084;2024-02-23T07:57:19;8.09;91.71
68109;SHT30;54893;49.864;19.084;2024-02-23T08:02:20;8.11;91.78
68109;SHT30;54893;49.864;19.084;2024-02-23T08:07:21;8.20;91.44
68109;SHT30;54893;49.864;19.084;2024-02-23T08:12:21;8.27;90.91
68109;SHT30;54893;49.864;19.084;2024-02-23T08:17:22;8.18;91.44
68109;SHT30;54893;49.864;19.084;2024-02-23T08:22:22;8.20;91.13
68109;SHT30;54893;49.864;19.084;2024-02-23T08:27:23;8.25;90.68
68109;SHT30;54893;49.864;19.084;2024-02-23T08:32:42;8.24;90.76
68109;SHT30;54893;49.864;19.084;2024-02-23T08:37:43;8.27;90.75
68109;SHT30;54893;49.864;19.084;2024-02-23T08:42:43;8.24;91.73
68109;SHT30;54893;49.864;19.084;2024-02-23T08:47:45;8.22;91.66
68109;SHT30;54893;49.864;19.084;2024-02-23T08:53:25;8.24;91.94
68109;SHT30;54893;49.864;19.084;2024-02-23T08:58:25;8.24;91.37
68109;SHT30;54893;49.864;19.084;2024-02-23T09:03:25;8.14;92.06
68109;SHT30;54893;49.864;19.084;2024-02-23T09:08:26;8.14;92.04
68109;SHT30;54893;49.864;19.084;2024-02-23T09:13:26;8.21;91.90
68109;SHT30;54893;49.864;19.084;2024-02-23T09:18:27;8.25;92.25
68109;SHT30;54893;49.864;19.084;2024-02-23T09:23:28;8.25;92.13
68109;SHT30;54893;49.864;19.084;2024-02-23T09:28:30;8.38;91.81
68109;SHT30;54893;49.864;19.084;2024-02-23T09:33:31;8.38;92.46
68109;SHT30;54893;49.864;19.084;2024-02-23T09:38:31;8.42;92.39
68109;SHT30;54893;49.864;19.084;2024-02-23T09:43:32;8.50;92.21
68109;SHT30;54893;49.864;19.084;2024-02-23T09:48:34;8.52;92.06
68109;SHT30;54893;49.864;19.084;2024-02-23T09:53:37;8.65;92.39
68109;SHT30;54893;49.864;19.084;2024-02-23T09:58:39;8.89;91.79
68109;SHT30;54893;49.864;19.084;2024-02-23T10:03:40;8.99;91.47
68109;SHT30;54893;49.864;19.084;2024-02-23T10:08:40;9.03;91.51
68109;SHT30;54893;49.864;19.084;2024-02-23T10:13:41;9.14;91.01
68109;SHT30;54893;49.864;19.084;2024-02-23T10:18:42;9.09;91.30
68109;SHT30;54893;49.864;19.084;2024-02-23T10:23:44;9.48;90.12
68109;SHT30;54893;49.864;19.084;2024-02-23T10:28:45;9.54;90.14
68109;SHT30;54893;49.864;19.084;2024-02-23T10:33:47;9.54;89.83
68109;SHT30;54893;49.864;19.084;2024-02-23T10:38:56;9.50;90.10
68109;SHT30;54893;49.864;19.084;2024-02-23T10:43:59;9.52;90.17
68109;SHT30;54893;49.864;19.084;2024-02-23T10:49:01;9.61;89.57
68109;SHT30;54893;49.864;19.084;2024-02-23T10:54:03;9.64;89.19
68109;SHT30;54893;49.864;19.084;2024-02-23T10:59:03;9.52;88.68
68109;SHT30;54893;49.864;19.084;2024-02-23T11:04:06;9.38;88.53
68109;SHT30;54893;49.864;19.084;2024-02-23T11:09:08;9.41;89.45
68109;SHT30;54893;49.864;19.084;2024-02-23T11:14:12;9.30;89.46
68109;SHT30;54893;49.864;19.084;2024-02-23T11:19:12;9.43;89.93
68109;SHT30;54893;49.864;19.084;2024-02-23T11:24:16;9.51;89.57
68109;SHT30;54893;49.864;19.084;2024-02-23T11:29:18;9.43;89.37
68109;SHT30;54893;49.864;19.084;2024-02-23T11:34:22;9.60;88.91
68109;SHT30;54893;49.864;19.084;2024-02-23T11:39:26;9.62;89.15
68109;SHT30;54893;49.864;19.084;2024-02-23T11:44:26;9.62;89.52
68109;SHT30;54893;49.864;19.084;2024-02-23T11:49:28;9.62;90.31
68109;SHT30;54893;49.864;19.084;2024-02-23T11:54:31;9.44;90.89
68109;SHT30;54893;49.864;19.084;2024-02-23T11:59:32;9.33;90.47
68109;SHT30;54893;49.864;19.084;2024-02-23T12:04:33;9.24;91.17
68109;SHT30;54893;49.864;19.084;2024-02-23T12:09:33;9.27;91.32
68109;SHT30;54893;49.864;19.084;2024-02-23T12:14:36;9.12;92.32
68109;SHT30;54893;49.864;19.084;2024-02-23T12:19:40;9.33;92.51
68109;SHT30;54893;49.864;19.084;2024-02-23T12:24:41;9.44;92.06
68109;SHT30;54893;49.864;19.084;2024-02-23T12:29:42;9.38;92.55
68109;SHT30;54893;49.864;19.084;2024-02-23T12:34:43;9.37;91.83
68109;SHT30;54893;49.864;19.084;2024-02-23T12:39:44;9.30;91.67
68109;SHT30;54893;49.864;19.084;2024-02-23T12:44:45;9.28;91.54
68109;SHT30;54893;49.864;19.084;2024-02-23T12:49:45;9.23;91.96
68109;SHT30;54893;49.864;19.084;2024-02-23T12:54:45;9.09;91.51
68109;SHT30;54893;49.864;19.084;2024-02-23T12:59:46;9.03;91.47
68109;SHT30;54893;49.864;19.084;2024-02-23T13:04:46;9.07;90.95
68109;SHT30;54893;49.864;19.084;2024-02-23T13:09:49;9.23;90.81
68109;SHT30;54893;49.864;19.084;2024-02-23T13:14:53;9.23;90.30
68109;SHT30;54893;49.864;19.084;2024-02-23T13:19:53;9.34;90.57
68109;SHT30;54893;49.864;19.084;2024-02-23T13:24:54;9.52;89.83
68109;SHT30;54893;49.864;19.084;2024-02-23T13:29:54;9.38;89.67
68109;SHT30;54893;49.864;19.084;2024-02-23T13:34:54;9.36;89.83
68109;SHT30;54893;49.864;19.084;2024-02-23T13:39:55;9.22;89.57
68109;SHT30;54893;49.864;19.084;2024-02-23T13:44:55;9.14;89.84
68109;SHT30;54893;49.864;19.084;2024-02-23T13:49:56;9.07;89.86
68109;SHT30;54893;49.864;19.084;2024-02-23T13:54:56;9.00;90.04
68109;SHT30;54893;49.864;19.084;2024-02-23T13:59:57;8.97;90.87
68109;SHT30;54893;49.864;19.084;2024-02-23T14:05:01;8.94;90.57
68109;SHT30;54893;49.864;19.084;2024-02-23T14:10:07;8.89;91.87
68109;SHT30;54893;49.864;19.084;2024-02-23T14:15:08;8.87;92.52
68109;SHT30;54893;49.864;19.084;2024-02-23T14:20:09;8.94;93.86
68109;SHT30;54893;49.864;19.084;2024-02-23T14:25:10;8.76;95.02
68109;SHT30;54893;49.864;19.084;2024-02-23T14:30:10;8.68;94.89
68109;SHT30;54893;49.864;19.084;2024-02-23T14:35:11;8.68;95.52
68109;SHT30;54893;49.864;19.084;2024-02-23T14:40:11;8.46;96.87
68109;SHT30;54893;49.864;19.084;2024-02-23T14:45:12;8.50;97.84
68109;SHT30;54893;49.864;19.084;2024-02-23T14:50:13;8.45;97.97
68109;SHT30;54893;49.864;19.084;2024-02-23T14:55:13;8.34;96.89
68109;SHT30;54893;49.864;19.084;2024-02-23T15:00:14;8.35;98.00
68109;SHT30;54893;49.864;19.084;2024-02-23T15:05:15;8.21;97.61
68109;SHT30;54893;49.864;19.084;2024-02-23T15:10:15;8.21;97.91
68109;SHT30;54893;49.864;19.084;2024-02-23T15:15:16;8.16;98.40
68109;SHT30;54893;49.864;19.084;2024-02-23T15:20:16;8.09;98.81
68109;SHT30;54893;49.864;19.084;2024-02-23T15:25:16;8.11;98.88
68109;SHT30;54893;49.864;19.084;2024-02-23T15:30:17;8.05;98.54
68109;SHT30;54893;49.864;19.084;2024-02-23T15:35:17;8.05;98.64
68109;SHT30;54893;49.864;19.084;2024-02-23T15:40:18;7.95;98.58
68109;SHT30;54893;49.864;19.084;2024-02-23T15:45:18;7.95;98.29
68109;SHT30;54893;49.864;19.084;2024-02-23T15:50:19;7.95;98.14
68109;SHT30;54893;49.864;19.084;2024-02-23T15:55:20;7.94;98.25
68109;SHT30;54893;49.864;19.084;2024-02-23T16:00:20;7.87;98.24
68109;SHT30;54893;49.864;19.084;2024-02-23T16:05:21;7.90;97.86
68109;SHT30;54893;49.864;19.084;2024-02-23T16:10:21;7.85;98.08
68109;SHT30;54893;49.864;19.084;2024-02-23T16:15:21;7.83;98.12
68109;SHT30;54893;49.864;19.084;2024-02-23T16:20:22;7.78;98.10
68109;SHT30;54893;49.864;19.084;2024-02-23T16:25:22;7.81;97.58
68109;SHT30;54893;49.864;19.084;2024-02-23T16:30:23;7.87;96.82
68109;SHT30;54893;49.864;19.084;2024-02-23T16:35:23;7.91;96.19
68109;SHT30;54893;49.864;19.084;2024-02-23T16:40:24;7.94;95.74
68109;SHT30;54893;49.864;19.084;2024-02-23T16:45:33;7.95;95.31
68109;SHT30;54893;49.864;19.084;2024-02-23T16:50:35;7.99;94.68
68109;SHT30;54893;49.864;19.084;2024-02-23T16:55:41;7.99;94.32
68109;SHT30;54893;49.864;19.084;2024-02-23T17:00:41;8.02;93.88
68109;SHT30;54893;49.864;19.084;2024-02-23T17:05:41;8.01;93.75
68109;SHT30;54893;49.864;19.084;2024-02-23T17:10:42;8.02;93.35
68109;SHT30;54893;49.864;19.084;2024-02-23T17:15:43;7.98;93.59
68109;SHT30;54893;49.864;19.084;2024-02-23T17:20:43;7.94;93.75
68109;SHT30;54893;49.864;19.084;2024-02-23T17:25:43;7.88;94.49
68109;SHT30;54893;49.864;19.084;2024-02-23T17:30:47;7.83;94.94
68109;SHT30;54893;49.864;19.084;2024-02-23T17:35:47;7.71;96.01
68109;SHT30;54893;49.864;19.084;2024-02-23T17:40:48;7.63;95.29
68109;SHT30;54893;49.864;19.084;2024-02-23T17:45:51;7.64;95.31
68109;SHT30;54893;49.864;19.084;2024-02-23T17:50:51;7.57;95.44
68109;SHT30;54893;49.864;19.084;2024-02-23T17:55:52;7.56;95.26
68109;SHT30;54893;49.864;19.084;2024-02-23T18:00:53;7.51;94.65
68109;SHT30;54893;49.864;19.084;2024-02-23T18:05:54;7.46;94.31
68109;SHT30;54893;49.864;19.084;2024-02-23T18:10:55;7.47;95.50
68109;SHT30;54893;49.864;19.084;2024-02-23T18:15:55;7.56;96.26
68109;SHT30;54893;49.864;19.084;2024-02-23T18:20:57;7.56;95.25
68109;SHT30;54893;49.864;19.084;2024-02-23T18:25:58;7.46;95.51
68109;SHT30;54893;49.864;19.084;2024-02-23T18:30:58;7.42;95.97
68109;SHT30;54893;49.864;19.084;2024-02-23T18:35:59;7.47;94.53
68109;SHT30;54893;49.864;19.084;2024-02-23T18:41:00;7.42;95.54
68109;SHT30;54893;49.864;19.084;2024-02-23T18:46:03;7.40;96.00
68109;SHT30;54893;49.864;19.084;2024-02-23T18:51:07;7.36;95.81
68109;SHT30;54893;49.864;19.084;2024-02-23T18:56:07;7.40;97.09
68109;SHT30;54893;49.864;19.084;2024-02-23T19:01:08;7.42;95.29
68109;SHT30;54893;49.864;19.084;2024-02-23T19:06:11;7.64;93.77
68109;SHT30;54893;49.864;19.084;2024-02-23T19:11:12;8.09;91.59
68109;SHT30;54893;49.864;19.084;2024-02-23T19:16:13;8.27;90.34
68109;SHT30;54893;49.864;19.084;2024-02-23T19:21:18;8.44;89.90
68109;SHT30;54893;49.864;19.084;2024-02-23T19:26:19;8.39;90.05
68109;SHT30;54893;49.864;19.084;2024-02-23T19:31:19;8.37;89.90
68109;SHT30;54893;49.864;19.084;2024-02-23T19:36:26;8.50;89.49
68109;SHT30;54893;49.864;19.084;2024-02-23T19:41:26;8.66;88.61
68109;SHT30;54893;49.864;19.084;2024-02-23T19:46:27;8.68;88.48
68109;SHT30;54893;49.864;19.084;2024-02-23T19:51:27;8.60;88.59
68109;SHT30;54893;49.864;19.084;2024-02-23T19:56:28;8.92;86.81
68109;SHT30;54893;49.864;19.084;2024-02-23T20:01:30;8.80;87.13
68109;SHT30;54893;49.864;19.084;2024-02-23T20:06:30;8.83;87.62
68109;SHT30;54893;49.864;19.084;2024-02-23T20:11:31;8.87;87.55
68109;SHT30;54893;49.864;19.084;2024-02-23T20:16:32;8.89;86.70
68109;SHT30;54893;49.864;19.084;2024-02-23T20:21:32;8.89;87.36
68109;SHT30;54893;49.864;19.084;2024-02-23T20:26:33;8.92;86.93
68109;SHT30;54893;49.864;19.084;2024-02-23T20:31:33;8.93;87.00
68109;SHT30;54893;49.864;19.084;2024-02-23T20:36:38;9.03;86.33
68109;SHT30;54893;49.864;19.084;2024-02-23T20:41:39;9.22;85.87
68109;SHT30;54893;49.864;19.084;2024-02-23T20:46:39;9.24;85.24
68109;SHT30;54893;49.864;19.084;2024-02-23T20:51:40;9.30;85.53
68109;SHT30;54893;49.864;19.084;2024-02-23T20:56:43;9.31;84.94
68109;SHT30;54893;49.864;19.084;2024-02-23T21:01:43;9.52;84.04
68109;SHT30;54893;49.864;19.084;2024-02-23T21:06:44;9.43;84.79
68109;SHT30;54893;49.864;19.084;2024-02-23T21:11:44;9.51;84.61
68109;SHT30;54893;49.864;19.084;2024-02-23T21:16:45;9.16;85.62
68109;SHT30;54893;49.864;19.084;2024-02-23T21:21:45;9.07;84.83
68109;SHT30;54893;49.864;19.084;2024-02-23T21:26:46;9.80;82.92
68109;SHT30;54893;49.864;19.084;2024-02-23T21:31:46;9.70;83.59
68109;SHT30;54893;49.864;19.084;2024-02-23T21:36:47;9.48;84.25
68109;SHT30;54893;49.864;19.084;2024-02-23T21:41:47;9.51;84.04
68109;SHT30;54893;49.864;19.084;2024-02-23T21:46:47;9.28;84.87
68109;SHT30;54893;49.864;19.084;2024-02-23T21:51:48;9.67;83.29
68109;SHT30;54893;49.864;19.084;2024-02-23T21:56:48;9.48;84.16
68109;SHT30;54893;49.864;19.084;2024-02-23T22:01:48;9.43;84.38
68109;SHT30;54893;49.864;19.084;2024-02-23T22:06:49;9.64;84.03
68109;SHT30;54893;49.864;19.084;2024-02-23T22:11:50;9.54;84.21
68109;SHT30;54893;49.864;19.084;2024-02-23T22:16:50;9.43;84.83
68109;SHT30;54893;49.864;19.084;2024-02-23T22:21:50;9.73;83.40
68109;SHT30;54893;49.864;19.084;2024-02-23T22:26:52;9.77;83.35
68109;SHT30;54893;49.864;19.084;2024-02-23T22:31:55;9.77;83.60
68109;SHT30;54893;49.864;19.084;2024-02-23T22:36:55;9.73;83.48
68109;SHT30;54893;49.864;19.084;2024-02-23T22:41:56;9.70;83.68
68109;SHT30;54893;49.864;19.084;2024-02-23T22:46:56;9.92;82.96
68109;SHT30;54893;49.864;19.084;2024-02-23T22:51:57;9.99;82.57
68109;SHT30;54893;49.864;19.084;2024-02-23T22:56:57;10.06;82.31
68109;SHT30;54893;49.864;19.084;2024-02-23T23:01:57;9.98;82.73
68109;SHT30;54893;49.864;19.084;2024-02-23T23:06:58;10.18;81.82
68109;SHT30;54893;49.864;19.084;2024-02-23T23:11:58;10.01;81.66
68109;SHT30;54893;49.864;19.084;2024-02-23T23:16:58;10.08;81.95
68109;SHT30;54893;49.864;19.084;2024-02-23T23:21:59;10.25;79.98
68109;SHT30;54893;49.864;19.084;2024-02-23T23:26:59;10.14;81.24
68109;SHT30;54893;49.864;19.084;2024-02-23T23:32:00;9.85;82.65
68109;SHT30;54893;49.864;19.084;2024-02-23T23:37:00;10.09;81.81
68109;SHT30;54893;49.864;19.084;2024-02-23T23:42:00;10.05;81.97
68109;SHT30;54893;49.864;19.084;2024-02-23T23:47:01;10.05;81.83
68109;SHT30;54893;49.864;19.084;2024-02-23T23:52:01;9.98;82.01
68109;SHT30;54893;49.864;19.084;2024-02-23T23:57:03;9.92;81.82
